sensor_id;sensor_type;location;lat;lon;timestamp;temperature;humidity
68026;SHT31;54819;48.030;14.710;2023-09-19T00:00:43;17.53;84.54
68026;SHT31;54819;48.030;14.710;2023-09-19T00:03:13;17.49;84.65
68026;SHT31;54819;48.030;14.710;2023-09-19T00:05:41;17.44;84.84
68026;SHT31;54819;48.030;14.710;2023-09-19T00:08:10;17.41;85.17
68026;SHT31;54819;48.030;14.710;2023-09-19T00:10:40;17.38;85.23
68026;SHT31;54819;48.030;14.710;2023-09-19T00:13:08;17.35;85.30
68026;SHT31;54819;48.030;14.710;2023-09-19T00:15:40;17.35;85.41
68026;SHT31;54819;48.030;14.710;2023-09-19T00:18:17;17.34;85.57
68026;SHT31;54819;48.030;14.710;2023-09-19T00:20:47;17.33;85.72
68026;SHT31;54819;48.030;14.710;2023-09-19T00:23:15;17.34;85.83
68026;SHT31;54819;48.030;14.710;2023-09-19T00:25:43;17.35;85.89
68026;SHT31;54819;48.030;14.710;2023-09-19T00:28:10;17.36;85.97
68026;SHT31;54819;48.030;14.710;2023-09-19T00:30:36;17.37;85.92
68026;SHT31;54819;48.030;14.710;2023-09-19T00:33:05;17.39;86.00
68026;SHT31;54819;48.030;14.710;2023-09-19T00:35:34;17.40;85.91
68026;SHT31;54819;48.030;14.710;2023-09-19T00:38:01;17.42;85.91
68026;SHT31;54819;48.030;14.710;2023-09-19T00:40:28;17.44;85.94
68026;SHT31;54819;48.030;14.710;2023-09-19T00:42:59;17.48;86.02
68026;SHT31;54819;48.030;14.710;2023-09-19T00:45:26;17.48;85.94
68026;SHT31;54819;48.030;14.710;2023-09-19T00:47:55;17.50;85.86
68026;SHT31;54819;48.030;14.710;2023-09-19T00:50:24;17.52;85.79
68026;SHT31;54819;48.030;14.710;2023-09-19T00:52:53;17.54;85.74
68026;SHT31;54819;48.030;14.710;2023-09-19T00:55:24;17.56;85.59
68026;SHT31;54819;48.030;14.710;2023-09-19T00:57:52;17.55;85.42
68026;SHT31;54819;48.030;14.710;2023-09-19T01:00:21;17.53;85.30
68026;SHT31;54819;48.030;14.710;2023-09-19T01:02:50;17.53;85.29
68026;SHT31;54819;48.030;14.710;2023-09-19T01:05:17;17.55;85.30
68026;SHT31;54819;48.030;14.710;2023-09-19T01:07:45;17.56;85.30
68026;SHT31;54819;48.030;14.710;2023-09-19T01:10:13;17.56;85.16
68026;SHT31;54819;48.030;14.710;2023-09-19T01:18:16;17.60;85.06
68026;SHT31;54819;48.030;14.710;2023-09-19T01:28:52;17.53;84.96
68026;SHT31;54819;48.030;14.710;2023-09-19T01:31:39;17.50;85.15
68026;SHT31;54819;48.030;14.710;2023-09-19T01:34:08;17.46;85.33
68026;SHT31;54819;48.030;14.710;2023-09-19T01:36:36;17.42;85.40
68026;SHT31;54819;48.030;14.710;2023-09-19T01:39:06;17.38;85.50
68026;SHT31;54819;48.030;14.710;2023-09-19T01:44:35;17.30;85.20
68026;SHT31;54819;48.030;14.710;2023-09-19T01:47:13;17.27;85.30
68026;SHT31;54819;48.030;14.710;2023-09-19T01:52:46;17.25;85.12
68026;SHT31;54819;48.030;14.710;2023-09-19T01:55:20;17.24;85.10
68026;SHT31;54819;48.030;14.710;2023-09-19T01:57:58;17.24;84.92
68026;SHT31;54819;48.030;14.710;2023-09-19T02:00:31;17.25;84.58
68026;SHT31;54819;48.030;14.710;2023-09-19T02:03:02;17.23;84.42
68026;SHT31;54819;48.030;14.710;2023-09-19T02:05:30;17.24;84.41
68026;SHT31;54819;48.030;14.710;2023-09-19T02:07:57;17.20;84.40
68026;SHT31;54819;48.030;14.710;2023-09-19T02:10:25;17.19;84.38
68026;SHT31;54819;48.030;14.710;2023-09-19T02:12:52;17.18;84.52
68026;SHT31;54819;48.030;14.710;2023-09-19T02:15:18;17.17;84.43
68026;SHT31;54819;48.030;14.710;2023-09-19T02:17:45;17.17;84.33
68026;SHT31;54819;48.030;14.710;2023-09-19T02:20:12;17.17;84.59
68026;SHT31;54819;48.030;14.710;2023-09-19T02:22:43;17.15;84.78
68026;SHT31;54819;48.030;14.710;2023-09-19T02:25:11;17.13;84.52
68026;SHT31;54819;48.030;14.710;2023-09-19T02:27:37;17.09;84.71
68026;SHT31;54819;48.030;14.710;2023-09-19T02:30:06;17.07;84.79
68026;SHT31;54819;48.030;14.710;2023-09-19T02:32:33;17.07;84.59
68026;SHT31;54819;48.030;14.710;2023-09-19T02:35:03;17.04;84.77
68026;SHT31;54819;48.030;14.710;2023-09-19T02:37:31;17.01;85.00
68026;SHT31;54819;48.030;14.710;2023-09-19T02:39:59;17.02;85.01
68026;SHT31;54819;48.030;14.710;2023-09-19T02:42:26;17.02;85.00
68026;SHT31;54819;48.030;14.710;2023-09-19T02:44:52;17.02;84.88
68026;SHT31;54819;48.030;14.710;2023-09-19T02:47:20;17.01;84.99
68026;SHT31;54819;48.030;14.710;2023-09-19T02:49:47;17.00;84.89
68026;SHT31;54819;48.030;14.710;2023-09-19T02:52:14;16.98;84.72
68026;SHT31;54819;48.030;14.710;2023-09-19T02:54:41;16.95;84.64
68026;SHT31;54819;48.030;14.710;2023-09-19T02:57:11;16.92;84.55
68026;SHT31;54819;48.030;14.710;2023-09-19T02:59:40;16.86;84.56
68026;SHT31;54819;48.030;14.710;2023-09-19T03:02:08;16.83;84.61
68026;SHT31;54819;48.030;14.710;2023-09-19T03:04:36;16.79;84.59
68026;SHT31;54819;48.030;14.710;2023-09-19T03:07:04;16.77;84.55
68026;SHT31;54819;48.030;14.710;2023-09-19T03:09:30;16.72;84.68
68026;SHT31;54819;48.030;14.710;2023-09-19T03:11:57;16.71;84.92
68026;SHT31;54819;48.030;14.710;2023-09-19T03:14:26;16.68;85.10
68026;SHT31;54819;48.030;14.710;2023-09-19T03:16:57;16.65;85.29
68026;SHT31;54819;48.030;14.710;2023-09-19T03:19:24;16.63;85.33
68026;SHT31;54819;48.030;14.710;2023-09-19T03:21:53;16.61;85.30
68026;SHT31;54819;48.030;14.710;2023-09-19T03:24:20;16.60;85.31
68026;SHT31;54819;48.030;14.710;2023-09-19T03:26:47;16.57;85.38
68026;SHT31;54819;48.030;14.710;2023-09-19T03:29:15;16.55;85.47
68026;SHT31;54819;48.030;14.710;2023-09-19T03:31:43;16.54;85.56
68026;SHT31;54819;48.030;14.710;2023-09-19T03:34:11;16.51;85.80
68026;SHT31;54819;48.030;14.710;2023-09-19T03:36:38;16.49;85.84
68026;SHT31;54819;48.030;14.710;2023-09-19T03:39:06;16.44;85.81
68026;SHT31;54819;48.030;14.710;2023-09-19T03:41:33;16.42;85.82
68026;SHT31;54819;48.030;14.710;2023-09-19T03:44:03;16.39;85.98
68026;SHT31;54819;48.030;14.710;2023-09-19T03:46:30;16.36;86.03
68026;SHT31;54819;48.030;14.710;2023-09-19T03:48:59;16.33;86.16
68026;SHT31;54819;48.030;14.710;2023-09-19T03:51:25;16.31;86.28
68026;SHT31;54819;48.030;14.710;2023-09-19T03:53:52;16.29;86.30
68026;SHT31;54819;48.030;14.710;2023-09-19T03:56:19;16.28;86.30
68026;SHT31;54819;48.030;14.710;2023-09-19T03:58:46;16.26;86.31
68026;SHT31;54819;48.030;14.710;2023-09-19T04:01:12;16.26;86.39
68026;SHT31;54819;48.030;14.710;2023-09-19T04:03:40;16.23;86.49
68026;SHT31;54819;48.030;14.710;2023-09-19T04:06:14;16.23;86.57
68026;SHT31;54819;48.030;14.710;2023-09-19T04:08:41;16.22;86.62
68026;SHT31;54819;48.030;14.710;2023-09-19T04:11:10;16.21;86.59
68026;SHT31;54819;48.030;14.710;2023-09-19T04:13:37;16.21;86.55
68026;SHT31;54819;48.030;14.710;2023-09-19T04:16:04;16.23;86.70
68026;SHT31;54819;48.030;14.710;2023-09-19T04:18:31;16.28;86.76
68026;SHT31;54819;48.030;14.710;2023-09-19T04:21:01;16.31;86.77
68026;SHT31;54819;48.030;14.710;2023-09-19T04:23:30;16.34;86.71
68026;SHT31;54819;48.030;14.710;2023-09-19T04:25:57;16.36;86.65
68026;SHT31;54819;48.030;14.710;2023-09-19T04:28:25;16.38;86.67
68026;SHT31;54819;48.030;14.710;2023-09-19T04:30:54;16.40;86.80
68026;SHT31;54819;48.030;14.710;2023-09-19T04:33:21;16.43;86.76
68026;SHT31;54819;48.030;14.710;2023-09-19T04:35:49;16.46;86.80
68026;SHT31;54819;48.030;14.710;2023-09-19T04:38:18;16.48;86.57
68026;SHT31;54819;48.030;14.710;2023-09-19T04:40:46;16.50;86.49
68026;SHT31;54819;48.030;14.710;2023-09-19T04:43:13;16.54;86.70
68026;SHT31;54819;48.030;14.710;2023-09-19T04:45:42;16.53;86.65
68026;SHT31;54819;48.030;14.710;2023-09-19T04:48:08;16.55;86.70
68026;SHT31;54819;48.030;14.710;2023-09-19T04:50:35;16.59;86.72
68026;SHT31;54819;48.030;14.710;2023-09-19T04:53:03;16.60;86.75
68026;SHT31;54819;48.030;14.710;2023-09-19T04:55:31;16.61;86.71
68026;SHT31;54819;48.030;14.710;2023-09-19T04:57:59;16.61;86.75
68026;SHT31;54819;48.030;14.710;2023-09-19T05:00:26;16.61;86.73
68026;SHT31;54819;48.030;14.710;2023-09-19T05:02:56;16.58;86.80
68026;SHT31;54819;48.030;14.710;2023-09-19T05:05:24;16.56;86.73
68026;SHT31;54819;48.030;14.710;2023-09-19T05:07:52;16.54;86.80
68026;SHT31;54819;48.030;14.710;2023-09-19T05:10:21;16.53;86.95
68026;SHT31;54819;48.030;14.710;2023-09-19T05:12:48;16.52;86.91
68026;SHT31;54819;48.030;14.710;2023-09-19T05:15:18;16.50;86.95
68026;SHT31;54819;48.030;14.710;2023-09-19T05:17:48;16.49;87.01
68026;SHT31;54819;48.030;14.710;2023-09-19T05:20:24;16.50;87.15
68026;SHT31;54819;48.030;14.710;2023-09-19T05:23:02;16.48;87.25
68026;SHT31;54819;48.030;14.710;2023-09-19T05:25:32;16.49;87.31
68026;SHT31;54819;48.030;14.710;2023-09-19T05:27:59;16.50;87.34
68026;SHT31;54819;48.030;14.710;2023-09-19T05:30:30;16.51;87.31
68026;SHT31;54819;48.030;14.710;2023-09-19T05:32:57;16.55;87.39
68026;SHT31;54819;48.030;14.710;2023-09-19T05:35:25;16.58;87.31
68026;SHT31;54819;48.030;14.710;2023-09-19T05:37:53;16.61;87.25
68026;SHT31;54819;48.030;14.710;2023-09-19T05:40:21;16.65;87.22
68026;SHT31;54819;48.030;14.710;2023-09-19T05:42:48;16.69;87.23
68026;SHT31;54819;48.030;14.710;2023-09-19T05:45:17;16.71;87.19
68026;SHT31;54819;48.030;14.710;2023-09-19T05:47:50;16.76;87.16
68026;SHT31;54819;48.030;14.710;2023-09-19T05:50:18;16.79;87.08
68026;SHT31;54819;48.030;14.710;2023-09-19T05:52:52;16.84;87.05
68026;SHT31;54819;48.030;14.710;2023-09-19T05:55:20;16.87;87.00
68026;SHT31;54819;48.030;14.710;2023-09-19T05:57:50;16.93;86.92
68026;SHT31;54819;48.030;14.710;2023-09-19T06:00:18;16.99;86.82
68026;SHT31;54819;48.030;14.710;2023-09-19T06:02:51;17.05;86.64
68026;SHT31;54819;48.030;14.710;2023-09-19T06:05:20;17.11;86.49
68026;SHT31;54819;48.030;14.710;2023-09-19T06:07:47;17.19;86.42
68026;SHT31;54819;48.030;14.710;2023-09-19T06:10:14;17.27;86.35
68026;SHT31;54819;48.030;14.710;2023-09-19T06:12:43;17.36;86.28
68026;SHT31;54819;48.030;14.710;2023-09-19T06:15:11;17.44;86.21
68026;SHT31;54819;48.030;14.710;2023-09-19T06:17:49;17.50;86.11
68026;SHT31;54819;48.030;14.710;2023-09-19T06:20:17;17.53;86.10
68026;SHT31;54819;48.030;14.710;2023-09-19T06:22:44;17.54;86.10
68026;SHT31;54819;48.030;14.710;2023-09-19T06:25:13;17.54;86.10
68026;SHT31;54819;48.030;14.710;2023-09-19T06:27:48;17.54;86.10
68026;SHT31;54819;48.030;14.710;2023-09-19T06:30:19;17.54;86.24
68026;SHT31;54819;48.030;14.710;2023-09-19T06:32:46;17.54;86.21
68026;SHT31;54819;48.030;14.710;2023-09-19T06:35:15;17.57;86.09
68026;SHT31;54819;48.030;14.710;2023-09-19T06:37:42;17.60;85.80
68026;SHT31;54819;48.030;14.710;2023-09-19T06:40:13;17.64;85.73
68026;SHT31;54819;48.030;14.710;2023-09-19T06:42:41;17.65;85.49
68026;SHT31;54819;48.030;14.710;2023-09-19T06:45:12;17.70;85.40
68026;SHT31;54819;48.030;14.710;2023-09-19T06:47:44;17.77;85.35
68026;SHT31;54819;48.030;14.710;2023-09-19T06:50:12;17.83;85.17
68026;SHT31;54819;48.030;14.710;2023-09-19T06:52:45;17.89;85.03
68026;SHT31;54819;48.030;14.710;2023-09-19T06:55:21;17.93;84.99
68026;SHT31;54819;48.030;14.710;2023-09-19T06:57:51;17.96;84.67
68026;SHT31;54819;48.030;14.710;2023-09-19T07:00:21;18.02;84.62
68026;SHT31;54819;48.030;14.710;2023-09-19T07:02:58;18.10;84.57
68026;SHT31;54819;48.030;14.710;2023-09-19T07:05:27;18.22;84.21
68026;SHT31;54819;48.030;14.710;2023-09-19T07:07:54;18.33;83.95
68026;SHT31;54819;48.030;14.710;2023-09-19T07:10:30;18.45;83.73
68026;SHT31;54819;48.030;14.710;2023-09-19T07:13:01;18.51;83.31
68026;SHT31;54819;48.030;14.710;2023-09-19T07:15:30;18.54;82.78
68026;SHT31;54819;48.030;14.710;2023-09-19T07:18:03;18.61;83.09
68026;SHT31;54819;48.030;14.710;2023-09-19T07:20:30;18.67;82.60
68026;SHT31;54819;48.030;14.710;2023-09-19T07:22:59;18.75;82.21
68026;SHT31;54819;48.030;14.710;2023-09-19T07:25:29;18.86;82.18
68026;SHT31;54819;48.030;14.710;2023-09-19T07:27:56;18.95;81.86
68026;SHT31;54819;48.030;14.710;2023-09-19T07:30:26;19.07;81.53
68026;SHT31;54819;48.030;14.710;2023-09-19T07:32:53;19.18;81.24
68026;SHT31;54819;48.030;14.710;2023-09-19T07:35:20;19.24;80.68
68026;SHT31;54819;48.030;14.710;2023-09-19T07:37:48;19.30;80.70
68026;SHT31;54819;48.030;14.710;2023-09-19T07:40:19;19.30;80.71
68026;SHT31;54819;48.030;14.710;2023-09-19T07:42:50;19.30;80.11
68026;SHT31;54819;48.030;14.710;2023-09-19T07:45:17;19.31;79.62
68026;SHT31;54819;48.030;14.710;2023-09-19T07:47:44;19.39;79.76
68026;SHT31;54819;48.030;14.710;2023-09-19T07:50:13;19.44;79.57
68026;SHT31;54819;48.030;14.710;2023-09-19T07:52:41;19.42;79.38
68026;SHT31;54819;48.030;14.710;2023-09-19T07:55:09;19.36;79.71
68026;SHT31;54819;48.030;14.710;2023-09-19T07:57:38;19.32;79.49
68026;SHT31;54819;48.030;14.710;2023-09-19T08:00:04;19.31;79.28
68026;SHT31;54819;48.030;14.710;2023-09-19T08:02:37;19.31;78.87
68026;SHT31;54819;48.030;14.710;2023-09-19T08:05:05;19.33;78.75
68026;SHT31;54819;48.030;14.710;2023-09-19T08:07:33;19.36;78.62
68026;SHT31;54819;48.030;14.710;2023-09-19T08:10:00;19.46;78.60
68026;SHT31;54819;48.030;14.710;2023-09-19T08:12:26;19.55;78.60
68026;SHT31;54819;48.030;14.710;2023-09-19T08:14:53;19.60;78.27
68026;SHT31;54819;48.030;14.710;2023-09-19T08:17:21;19.66;78.32
68026;SHT31;54819;48.030;14.710;2023-09-19T08:19:49;19.66;78.00
68026;SHT31;54819;48.030;14.710;2023-09-19T08:22:19;19.69;77.75
68026;SHT31;54819;48.030;14.710;2023-09-19T08:24:46;19.72;77.69
68026;SHT31;54819;48.030;14.710;2023-09-19T08:27:14;19.77;77.77
68026;SHT31;54819;48.030;14.710;2023-09-19T08:29:41;19.85;77.01
68026;SHT31;54819;48.030;14.710;2023-09-19T08:32:09;19.94;76.81
68026;SHT31;54819;48.030;14.710;2023-09-19T08:34:36;19.98;76.74
68026;SHT31;54819;48.030;14.710;2023-09-19T08:37:04;19.97;76.38
68026;SHT31;54819;48.030;14.710;2023-09-19T08:39:31;19.94;76.58
68026;SHT31;54819;48.030;14.710;2023-09-19T08:42:00;19.89;76.60
68026;SHT31;54819;48.030;14.710;2023-09-19T08:44:28;19.86;76.49
68026;SHT31;54819;48.030;14.710;2023-09-19T08:47:02;19.88;76.26
68026;SHT31;54819;48.030;14.710;2023-09-19T08:50:23;19.95;76.15
68026;SHT31;54819;48.030;14.710;2023-09-19T08:52:32;20.00;75.94
68026;SHT31;54819;48.030;14.710;2023-09-19T08:55:03;20.00;75.62
68026;SHT31;54819;48.030;14.710;2023-09-19T08:57:36;20.03;75.46
68026;SHT31;54819;48.030;14.710;2023-09-19T09:00:08;20.08;75.22
68026;SHT31;54819;48.030;14.710;2023-09-19T09:02:38;20.14;74.36
68026;SHT31;54819;48.030;14.710;2023-09-19T09:05:09;20.22;74.01
68026;SHT31;54819;48.030;14.710;2023-09-19T09:07:37;20.35;74.34
68026;SHT31;54819;48.030;14.710;2023-09-19T09:10:04;20.50;74.22
68026;SHT31;54819;48.030;14.710;2023-09-19T09:12:31;20.64;74.26
68026;SHT31;54819;48.030;14.710;2023-09-19T09:14:59;20.76;73.66
68026;SHT31;54819;48.030;14.710;2023-09-19T09:17:26;20.88;73.17
68026;SHT31;54819;48.030;14.710;2023-09-19T09:19:54;20.97;73.21
68026;SHT31;54819;48.030;14.710;2023-09-19T09:22:21;20.98;72.94
68026;SHT31;54819;48.030;14.710;2023-09-19T09:24:53;20.94;72.78
68026;SHT31;54819;48.030;14.710;2023-09-19T09:27:27;20.90;72.72
68026;SHT31;54819;48.030;14.710;2023-09-19T09:29:54;20.91;72.41
68026;SHT31;54819;48.030;14.710;2023-09-19T09:32:28;21.00;72.65
68026;SHT31;54819;48.030;14.710;2023-09-19T09:35:00;21.09;72.29
68026;SHT31;54819;48.030;14.710;2023-09-19T09:37:28;21.18;71.85
68026;SHT31;54819;48.030;14.710;2023-09-19T09:39:58;21.27;71.41
68026;SHT31;54819;48.030;14.710;2023-09-19T09:42:45;21.37;71.05
68026;SHT31;54819;48.030;14.710;2023-09-19T09:45:22;21.50;71.44
68026;SHT31;54819;48.030;14.710;2023-09-19T09:48:00;21.60;71.23
68026;SHT31;54819;48.030;14.710;2023-09-19T09:50:31;21.64;70.64
68026;SHT31;54819;48.030;14.710;2023-09-19T09:53:23;21.71;70.48
68026;SHT31;54819;48.030;14.710;2023-09-19T09:56:04;21.79;70.67
68026;SHT31;54819;48.030;14.710;2023-09-19T09:58:36;21.86;70.13
68026;SHT31;54819;48.030;14.710;2023-09-19T10:01:07;21.92;70.54
68026;SHT31;54819;48.030;14.710;2023-09-19T10:03:39;21.89;70.69
68026;SHT31;54819;48.030;14.710;2023-09-19T10:06:11;21.82;70.92
68026;SHT31;54819;48.030;14.710;2023-09-19T10:09:08;21.73;71.52
68026;SHT31;54819;48.030;14.710;2023-09-19T10:11:43;21.68;71.95
68026;SHT31;54819;48.030;14.710;2023-09-19T10:14:12;21.74;72.05
68026;SHT31;54819;48.030;14.710;2023-09-19T10:16:46;21.76;72.05
68026;SHT31;54819;48.030;14.710;2023-09-19T10:19:15;21.87;72.24
68026;SHT31;54819;48.030;14.710;2023-09-19T10:21:50;21.89;70.96
68026;SHT31;54819;48.030;14.710;2023-09-19T10:24:17;21.90;70.68
68026;SHT31;54819;48.030;14.710;2023-09-19T10:26:46;22.02;70.61
68026;SHT31;54819;48.030;14.710;2023-09-19T10:29:17;21.99;70.24
68026;SHT31;54819;48.030;14.710;2023-09-19T10:31:47;21.90;69.78
68026;SHT31;54819;48.030;14.710;2023-09-19T10:34:14;21.81;69.91
68026;SHT31;54819;48.030;14.710;2023-09-19T10:36:46;21.68;69.82
68026;SHT31;54819;48.030;14.710;2023-09-19T10:39:14;21.58;69.65
68026;SHT31;54819;48.030;14.710;2023-09-19T10:41:50;21.44;69.57
68026;SHT31;54819;48.030;14.710;2023-09-19T10:44:23;21.30;69.97
68026;SHT31;54819;48.030;14.710;2023-09-19T10:46:54;21.23;70.15
68026;SHT31;54819;48.030;14.710;2023-09-19T10:49:21;21.17;70.08
68026;SHT31;54819;48.030;14.710;2023-09-19T10:51:49;21.23;70.83
68026;SHT31;54819;48.030;14.710;2023-09-19T10:54:21;21.28;70.97
68026;SHT31;54819;48.030;14.710;2023-09-19T10:56:53;21.33;71.00
68026;SHT31;54819;48.030;14.710;2023-09-19T10:59:21;21.36;70.98
68026;SHT31;54819;48.030;14.710;2023-09-19T11:04:33;21.44;70.65
68026;SHT31;54819;48.030;14.710;2023-09-19T11:07:06;21.45;70.22
68026;SHT31;54819;48.030;14.710;2023-09-19T11:09:44;21.48;69.82
68026;SHT31;54819;48.030;14.710;2023-09-19T11:16:02;21.44;70.05
68026;SHT31;54819;48.030;14.710;2023-09-19T11:26:45;21.73;70.15
68026;SHT31;54819;48.030;14.710;2023-09-19T11:29:24;21.83;70.11
68026;SHT31;54819;48.030;14.710;2023-09-19T11:31:55;21.82;68.66
68026;SHT31;54819;48.030;14.710;2023-09-19T11:34:43;21.73;68.54
68026;SHT31;54819;48.030;14.710;2023-09-19T11:37:59;21.64;69.58
68026;SHT31;54819;48.030;14.710;2023-09-19T11:40:09;21.58;69.68
68026;SHT31;54819;48.030;14.710;2023-09-19T11:42:47;21.59;69.40
68026;SHT31;54819;48.030;14.710;2023-09-19T11:48:07;21.76;69.79
68026;SHT31;54819;48.030;14.710;2023-09-19T11:50:35;21.89;69.64
68026;SHT31;54819;48.030;14.710;2023-09-19T11:53:04;22.02;68.96
68026;SHT31;54819;48.030;14.710;2023-09-19T11:55:32;22.13;68.87
68026;SHT31;54819;48.030;14.710;2023-09-19T11:58:00;22.20;68.98
68026;SHT31;54819;48.030;14.710;2023-09-19T12:00:27;22.22;69.09
68026;SHT31;54819;48.030;14.710;2023-09-19T12:02:55;22.18;69.26
68026;SHT31;54819;48.030;14.710;2023-09-19T12:05:30;22.09;68.75
68026;SHT31;54819;48.030;14.710;2023-09-19T12:07:59;22.00;68.71
68026;SHT31;54819;48.030;14.710;2023-09-19T12:10:27;21.91;69.06
68026;SHT31;54819;48.030;14.710;2023-09-19T12:12:54;21.85;69.29
68026;SHT31;54819;48.030;14.710;2023-09-19T12:15:23;21.81;69.20
68026;SHT31;54819;48.030;14.710;2023-09-19T12:17:55;21.83;69.49
68026;SHT31;54819;48.030;14.710;2023-09-19T12:20:22;21.89;69.43
68026;SHT31;54819;48.030;14.710;2023-09-19T12:22:49;21.96;69.20
68026;SHT31;54819;48.030;14.710;2023-09-19T12:25:16;22.04;69.25
68026;SHT31;54819;48.030;14.710;2023-09-19T12:27:45;22.16;69.41
68026;SHT31;54819;48.030;14.710;2023-09-19T12:30:19;22.20;69.42
68026;SHT31;54819;48.030;14.710;2023-09-19T12:32:53;22.17;69.15
68026;SHT31;54819;48.030;14.710;2023-09-19T12:35:29;22.08;68.86
68026;SHT31;54819;48.030;14.710;2023-09-19T12:37:57;21.99;68.90
68026;SHT31;54819;48.030;14.710;2023-09-19T12:40:25;21.95;68.77
68026;SHT31;54819;48.030;14.710;2023-09-19T12:42:56;21.99;68.85
68026;SHT31;54819;48.030;14.710;2023-09-19T12:45:29;22.12;69.04
68026;SHT31;54819;48.030;14.710;2023-09-19T12:51:08;22.22;68.40
68026;SHT31;54819;48.030;14.710;2023-09-19T12:53:42;22.18;67.95
68026;SHT31;54819;48.030;14.710;2023-09-19T12:56:14;22.10;68.30
68026;SHT31;54819;48.030;14.710;2023-09-19T12:58:49;22.01;68.94
68026;SHT31;54819;48.030;14.710;2023-09-19T13:01:23;21.89;69.02
68026;SHT31;54819;48.030;14.710;2023-09-19T13:04:10;21.79;68.95
68026;SHT31;54819;48.030;14.710;2023-09-19T13:06:48;21.68;69.00
68026;SHT31;54819;48.030;14.710;2023-09-19T13:09:19;21.64;69.83
68026;SHT31;54819;48.030;14.710;2023-09-19T13:11:47;21.64;70.54
68026;SHT31;54819;48.030;14.710;2023-09-19T13:14:24;21.65;70.70
68026;SHT31;54819;48.030;14.710;2023-09-19T13:19:41;21.74;70.99
68026;SHT31;54819;48.030;14.710;2023-09-19T13:25:10;21.98;71.11
68026;SHT31;54819;48.030;14.710;2023-09-19T13:27:49;22.08;71.30
68026;SHT31;54819;48.030;14.710;2023-09-19T13:30:18;22.18;71.20
68026;SHT31;54819;48.030;14.710;2023-09-19T13:32:46;22.25;70.86
68026;SHT31;54819;48.030;14.710;2023-09-19T13:35:14;22.31;69.86
68026;SHT31;54819;48.030;14.710;2023-09-19T13:37:42;22.40;70.05
68026;SHT31;54819;48.030;14.710;2023-09-19T13:40:10;22.51;69.58
68026;SHT31;54819;48.030;14.710;2023-09-19T13:42:38;22.56;69.04
68026;SHT31;54819;48.030;14.710;2023-09-19T13:45:06;22.56;68.85
68026;SHT31;54819;48.030;14.710;2023-09-19T13:47:33;22.56;68.99
68026;SHT31;54819;48.030;14.710;2023-09-19T13:50:02;22.52;68.54
68026;SHT31;54819;48.030;14.710;2023-09-19T13:52:31;22.47;68.78
68026;SHT31;54819;48.030;14.710;2023-09-19T13:54:58;22.40;68.86
68026;SHT31;54819;48.030;14.710;2023-09-19T13:57:26;22.36;69.21
68026;SHT31;54819;48.030;14.710;2023-09-19T13:59:53;22.25;69.19
68026;SHT31;54819;48.030;14.710;2023-09-19T14:02:21;22.12;68.86
68026;SHT31;54819;48.030;14.710;2023-09-19T14:04:52;22.07;69.24
68026;SHT31;54819;48.030;14.710;2023-09-19T14:07:19;22.04;69.05
68026;SHT31;54819;48.030;14.710;2023-09-19T14:09:47;22.04;69.02
68026;SHT31;54819;48.030;14.710;2023-09-19T14:12:13;22.05;68.88
68026;SHT31;54819;48.030;14.710;2023-09-19T14:14:40;22.06;69.22
68026;SHT31;54819;48.030;14.710;2023-09-19T14:17:08;22.04;69.58
68026;SHT31;54819;48.030;14.710;2023-09-19T14:19:36;21.99;69.53
68026;SHT31;54819;48.030;14.710;2023-09-19T14:22:04;21.97;69.60
68026;SHT31;54819;48.030;14.710;2023-09-19T14:24:34;21.99;69.53
68026;SHT31;54819;48.030;14.710;2023-09-19T14:27:02;21.99;69.59
68026;SHT31;54819;48.030;14.710;2023-09-19T14:29:30;22.04;69.65
68026;SHT31;54819;48.030;14.710;2023-09-19T14:31:58;22.08;69.07
68026;SHT31;54819;48.030;14.710;2023-09-19T14:34:25;22.12;68.87
68026;SHT31;54819;48.030;14.710;2023-09-19T14:36:52;22.19;69.31
68026;SHT31;54819;48.030;14.710;2023-09-19T14:39:21;22.28;69.36
68026;SHT31;54819;48.030;14.710;2023-09-19T14:41:47;22.31;70.07
68026;SHT31;54819;48.030;14.710;2023-09-19T14:44:14;22.24;70.00
68026;SHT31;54819;48.030;14.710;2023-09-19T14:46:42;21.89;67.07
68026;SHT31;54819;48.030;14.710;2023-09-19T14:49:11;21.39;67.68
68026;SHT31;54819;48.030;14.710;2023-09-19T14:51:38;21.03;68.53
68026;SHT31;54819;48.030;14.710;2023-09-19T14:54:10;20.91;69.23
68026;SHT31;54819;48.030;14.710;2023-09-19T14:56:37;20.90;69.90
68026;SHT31;54819;48.030;14.710;2023-09-19T14:59:04;20.90;70.60
68026;SHT31;54819;48.030;14.710;2023-09-19T15:01:31;20.77;70.42
68026;SHT31;54819;48.030;14.710;2023-09-19T15:03:59;20.60;70.63
68026;SHT31;54819;48.030;14.710;2023-09-19T15:06:27;20.59;70.81
68026;SHT31;54819;48.030;14.710;2023-09-19T15:08:55;20.66;70.94
68026;SHT31;54819;48.030;14.710;2023-09-19T15:11:21;20.62;70.32
68026;SHT31;54819;48.030;14.710;2023-09-19T15:13:51;20.54;70.48
68026;SHT31;54819;48.030;14.710;2023-09-19T15:16:20;20.42;70.66
68026;SHT31;54819;48.030;14.710;2023-09-19T15:18:47;20.20;71.42
68026;SHT31;54819;48.030;14.710;2023-09-19T15:21:14;20.14;71.81
68026;SHT31;54819;48.030;14.710;2023-09-19T15:23:42;20.05;71.94
68026;SHT31;54819;48.030;14.710;2023-09-19T15:26:11;19.92;71.97
68026;SHT31;54819;48.030;14.710;2023-09-19T15:28:40;19.87;72.01
68026;SHT31;54819;48.030;14.710;2023-09-19T15:31:08;19.78;72.33
68026;SHT31;54819;48.030;14.710;2023-09-19T15:33:39;19.75;72.83
68026;SHT31;54819;48.030;14.710;2023-09-19T15:41:27;19.69;73.18
68026;SHT31;54819;48.030;14.710;2023-09-19T15:43:59;19.69;73.39
68026;SHT31;54819;48.030;14.710;2023-09-19T15:46:28;19.72;73.54
68026;SHT31;54819;48.030;14.710;2023-09-19T15:48:56;19.71;73.85
68026;SHT31;54819;48.030;14.710;2023-09-19T15:51:24;19.68;74.00
68026;SHT31;54819;48.030;14.710;2023-09-19T15:53:51;19.64;73.85
68026;SHT31;54819;48.030;14.710;2023-09-19T15:56:20;19.62;73.85
68026;SHT31;54819;48.030;14.710;2023-09-19T15:58:48;19.60;73.57
68026;SHT31;54819;48.030;14.710;2023-09-19T16:01:18;19.57;73.57
68026;SHT31;54819;48.030;14.710;2023-09-19T16:03:46;19.56;73.79
68026;SHT31;54819;48.030;14.710;2023-09-19T16:06:15;19.57;73.82
68026;SHT31;54819;48.030;14.710;2023-09-19T16:08:47;19.59;73.70
68026;SHT31;54819;48.030;14.710;2023-09-19T16:11:15;19.61;73.99
68026;SHT31;54819;48.030;14.710;2023-09-19T16:13:42;19.62;73.95
68026;SHT31;54819;48.030;14.710;2023-09-19T16:16:12;19.62;73.85
68026;SHT31;54819;48.030;14.710;2023-09-19T16:18:47;19.64;74.21
68026;SHT31;54819;48.030;14.710;2023-09-19T16:21:24;19.64;74.39